sensor_id;sensor_type;location;lat;lon;timestamp;P1;durP1;ratioP1;P2;durP2;ratioP2
3405;SDS011;10008;48.682;9.016;2022-07-10T00:00:13;7.40;;;5.13;;
3405;SDS011;10008;48.682;9.016;2022-07-10T00:02:40;7.90;;;5.23;;
3405;SDS011;10008;48.682;9.016;2022-07-10T00:05:07;8.90;;;5.30;;
3405;SDS011;10008;48.682;9.016;2022-07-10T00:07:34;9.90;;;5.47;;
3405;SDS011;10008;48.682;9.016;2022-07-10T00:10:00;7.60;;;4.90;;
3405;SDS011;10008;48.682;9.016;2022-07-10T00:12:28;9.00;;;5.17;;
3405;SDS011;10008;48.682;9.016;2022-07-10T00:14:53;8.80;;;5.23;;
3405;SDS011;10008;48.682;9.016;2022-07-10T00:17:19;8.50;;;5.23;;
3405;SDS011;10008;48.682;9.016;2022-07-10T00:19:45;6.77;;;4.93;;
3405;SDS011;10008;48.682;9.016;2022-07-10T00:22:11;7.80;;;4.87;;
3405;SDS011;10008;48.682;9.016;2022-07-10T00:24:36;8.07;;;5.50;;
3405;SDS011;10008;48.682;9.016;2022-07-10T00:27:02;8.33;;;5.47;;
3405;SDS011;10008;48.682;9.016;2022-07-10T00:29:28;6.90;;;5.03;;
3405;SDS011;10008;48.682;9.016;2022-07-10T00:31:54;6.53;;;4.60;;
3405;SDS011;10008;48.682;9.016;2022-07-10T00:34:20;7.47;;;5.03;;
3405;SDS011;10008;48.682;9.016;2022-07-10T00:36:46;6.73;;;5.17;;
3405;SDS011;10008;48.682;9.016;2022-07-10T00:39:12;8.47;;;5.60;;
3405;SDS011;10008;48.682;9.016;2022-07-10T00:41:38;8.77;;;5.13;;
3405;SDS011;10008;48.682;9.016;2022-07-10T00:44:03;7.83;;;6.23;;
3405;SDS011;10008;48.682;9.016;2022-07-10T00:46:30;7.83;;;5.17;;
3405;SDS011;10008;48.682;9.016;2022-07-10T00:48:56;7.63;;;4.80;;
3405;SDS011;10008;48.682;9.016;2022-07-10T00:51:27;6.40;;;4.73;;
3405;SDS011;10008;48.682;9.016;2022-07-10T00:53:55;8.00;;;5.50;;
3405;SDS011;10008;48.682;9.016;2022-07-10T00:56:25;7.00;;;5.10;;
3405;SDS011;10008;48.682;9.016;2022-07-10T00:58:51;7.93;;;5.70;;
3405;SDS011;10008;48.682;9.016;2022-07-10T01:01:18;7.77;;;5.57;;
3405;SDS011;10008;48.682;9.016;2022-07-10T01:03:44;6.50;;;5.10;;
3405;SDS011;10008;48.682;9.016;2022-07-10T01:06:11;8.20;;;6.07;;
3405;SDS011;10008;48.682;9.016;2022-07-10T01:08:38;8.23;;;5.60;;
3405;SDS011;10008;48.682;9.016;2022-07-10T01:11:04;8.13;;;5.50;;
3405;SDS011;10008;48.682;9.016;2022-07-10T01:13:30;7.80;;;5.43;;
3405;SDS011;10008;48.682;9.016;2022-07-10T01:15:56;8.00;;;5.90;;
3405;SDS011;10008;48.682;9.016;2022-07-10T01:18:24;8.27;;;5.97;;
3405;SDS011;10008;48.682;9.016;2022-07-10T01:20:54;8.70;;;6.33;;
3405;SDS011;10008;48.682;9.016;2022-07-10T01:23:21;8.07;;;6.00;;
3405;SDS011;10008;48.682;9.016;2022-07-10T01:25:48;8.57;;;6.00;;
3405;SDS011;10008;48.682;9.016;2022-07-10T01:28:15;8.70;;;6.40;;
3405;SDS011;10008;48.682;9.016;2022-07-10T01:30:42;8.87;;;6.67;;
3405;SDS011;10008;48.682;9.016;2022-07-10T01:33:08;9.73;;;6.70;;
3405;SDS011;10008;48.682;9.016;2022-07-10T01:35:34;8.40;;;6.60;;
3405;SDS011;10008;48.682;9.016;2022-07-10T01:37:59;9.63;;;6.93;;
3405;SDS011;10008;48.682;9.016;2022-07-10T01:40:25;10.93;;;7.40;;
3405;SDS011;10008;48.682;9.016;2022-07-10T01:42:51;11.63;;;7.20;;
3405;SDS011;10008;48.682;9.016;2022-07-10T01:45:17;10.67;;;8.10;;
3405;SDS011;10008;48.682;9.016;2022-07-10T01:47:45;8.63;;;7.40;;
3405;SDS011;10008;48.682;9.016;2022-07-10T01:50:11;10.30;;;7.97;;
3405;SDS011;10008;48.682;9.016;2022-07-10T01:52:37;11.87;;;9.73;;
3405;SDS011;10008;48.682;9.016;2022-07-10T01:55:04;11.90;;;8.70;;
3405;SDS011;10008;48.682;9.016;2022-07-10T01:57:31;11.10;;;9.90;;
3405;SDS011;10008;48.682;9.016;2022-07-10T01:59:57;11.63;;;10.07;;
3405;SDS011;10008;48.682;9.016;2022-07-10T02:02:22;10.93;;;9.70;;
3405;SDS011;10008;48.682;9.016;2022-07-10T02:04:48;12.50;;;9.10;;
3405;SDS011;10008;48.682;9.016;2022-07-10T02:07:15;13.10;;;10.07;;
3405;SDS011;10008;48.682;9.016;2022-07-10T02:09:42;10.80;;;9.27;;
3405;SDS011;10008;48.682;9.016;2022-07-10T02:12:09;14.37;;;10.93;;
3405;SDS011;10008;48.682;9.016;2022-07-10T02:14:36;13.13;;;9.67;;
3405;SDS011;10008;48.682;9.016;2022-07-10T02:17:03;12.67;;;11.10;;
3405;SDS011;10008;48.682;9.016;2022-07-10T02:19:30;13.50;;;9.70;;
3405;SDS011;10008;48.682;9.016;2022-07-10T02:21:55;12.27;;;10.47;;
3405;SDS011;10008;48.682;9.016;2022-07-10T02:24:21;12.03;;;10.30;;
3405;SDS011;10008;48.682;9.016;2022-07-10T02:26:47;13.90;;;11.23;;
3405;SDS011;10008;48.682;9.016;2022-07-10T02:29:13;14.03;;;11.30;;
3405;SDS011;10008;48.682;9.016;2022-07-10T02:31:39;15.70;;;11.97;;
3405;SDS011;10008;48.682;9.016;2022-07-10T02:34:08;14.53;;;11.43;;
3405;SDS011;10008;48.682;9.016;2022-07-10T02:36:40;13.27;;;11.87;;
3405;SDS011;10008;48.682;9.016;2022-07-10T02:39:06;14.63;;;12.47;;
3405;SDS011;10008;48.682;9.016;2022-07-10T02:41:33;15.77;;;12.90;;
3405;SDS011;10008;48.682;9.016;2022-07-10T02:44:01;13.67;;;12.27;;
3405;SDS011;10008;48.682;9.016;2022-07-10T02:46:27;16.07;;;13.20;;
3405;SDS011;10008;48.682;9.016;2022-07-10T02:48:53;17.60;;;14.37;;
3405;SDS011;10008;48.682;9.016;2022-07-10T02:51:18;18.10;;;16.20;;
3405;SDS011;10008;48.682;9.016;2022-07-10T02:53:44;19.70;;;17.43;;
3405;SDS011;10008;48.682;9.016;2022-07-10T02:56:10;20.00;;;17.90;;
3405;SDS011;10008;48.682;9.016;2022-07-10T02:58:37;18.67;;;15.83;;
3405;SDS011;10008;48.682;9.016;2022-07-10T03:01:03;19.00;;;16.63;;
3405;SDS011;10008;48.682;9.016;2022-07-10T03:03:29;18.90;;;16.90;;
3405;SDS011;10008;48.682;9.016;2022-07-10T03:05:55;19.00;;;17.00;;
3405;SDS011;10008;48.682;9.016;2022-07-10T03:08:20;19.00;;;16.90;;
3405;SDS011;10008;48.682;9.016;2022-07-10T03:10:46;20.10;;;17.40;;
3405;SDS011;10008;48.682;9.016;2022-07-10T03:13:12;18.80;;;16.77;;
3405;SDS011;10008;48.682;9.016;2022-07-10T03:15:38;20.40;;;18.30;;
3405;SDS011;10008;48.682;9.016;2022-07-10T03:18:03;21.43;;;19.17;;
3405;SDS011;10008;48.682;9.016;2022-07-10T03:20:29;19.23;;;17.10;;
3405;SDS011;10008;48.682;9.016;2022-07-10T03:22:55;21.13;;;18.97;;
3405;SDS011;10008;48.682;9.016;2022-07-10T03:25:21;20.60;;;17.93;;
3405;SDS011;10008;48.682;9.016;2022-07-10T03:27:46;20.97;;;18.63;;
3405;SDS011;10008;48.682;9.016;2022-07-10T03:30:12;21.17;;;17.63;;
3405;SDS011;10008;48.682;9.016;2022-07-10T03:32:38;21.33;;;19.03;;
3405;SDS011;10008;48.682;9.016;2022-07-10T03:35:04;21.93;;;19.63;;
3405;SDS011;10008;48.682;9.016;2022-07-10T03:37:30;21.53;;;18.83;;
3405;SDS011;10008;48.682;9.016;2022-07-10T03:39:56;19.67;;;17.37;;
3405;SDS011;10008;48.682;9.016;2022-07-10T03:42:21;21.47;;;19.27;;
3405;SDS011;10008;48.682;9.016;2022-07-10T03:44:47;21.63;;;18.70;;
3405;SDS011;10008;48.682;9.016;2022-07-10T03:47:13;19.63;;;16.97;;
3405;SDS011;10008;48.682;9.016;2022-07-10T03:49:38;21.00;;;18.70;;
3405;SDS011;10008;48.682;9.016;2022-07-10T03:52:05;20.00;;;17.87;;
3405;SDS011;10008;48.682;9.016;2022-07-10T03:54:31;21.53;;;17.50;;
3405;SDS011;10008;48.682;9.016;2022-07-10T03:56:57;19.97;;;17.10;;
3405;SDS011;10008;48.682;9.016;2022-07-10T03:59:42;23.20;;;18.40;;
3405;SDS011;10008;48.682;9.016;2022-07-10T04:02:08;20.03;;;17.87;;
3405;SDS011;10008;48.682;9.016;2022-07-10T04:04:33;20.63;;;18.53;;
3405;SDS011;10008;48.682;9.016;2022-07-10T04:06:59;19.27;;;16.90;;
3405;SDS011;10008;48.682;9.016;2022-07-10T04:09:25;18.03;;;15.23;;
3405;SDS011;10008;48.682;9.016;2022-07-10T04:11:51;22.80;;;16.77;;
3405;SDS011;10008;48.682;9.016;2022-07-10T04:14:17;16.80;;;14.43;;
3405;SDS011;10008;48.682;9.016;2022-07-10T04:16:43;18.80;;;16.80;;
3405;SDS011;10008;48.682;9.016;2022-07-10T04:19:08;17.53;;;15.47;;
3405;SDS011;10008;48.682;9.016;2022-07-10T04:21:34;19.13;;;15.67;;
3405;SDS011;10008;48.682;9.016;2022-07-10T04:24:00;18.13;;;15.40;;
3405;SDS011;10008;48.682;9.016;2022-07-10T04:26:26;17.90;;;13.70;;
3405;SDS011;10008;48.682;9.016;2022-07-10T04:28:51;16.23;;;13.87;;
3405;SDS011;10008;48.682;9.016;2022-07-10T04:31:17;16.90;;;14.10;;
3405;SDS011;10008;48.682;9.016;2022-07-10T04:33:43;16.43;;;14.43;;
3405;SDS011;10008;48.682;9.016;2022-07-10T04:36:09;17.07;;;13.20;;
3405;SDS011;10008;48.682;9.016;2022-07-10T04:38:34;14.50;;;12.57;;
3405;SDS011;10008;48.682;9.016;2022-07-10T04:41:00;16.03;;;12.30;;
3405;SDS011;10008;48.682;9.016;2022-07-10T04:43:26;14.00;;;12.50;;
3405;SDS011;10008;48.682;9.016;2022-07-10T04:45:52;14.77;;;11.67;;
3405;SDS011;10008;48.682;9.016;2022-07-10T04:48:17;13.87;;;12.00;;
3405;SDS011;10008;48.682;9.016;2022-07-10T04:50:43;15.13;;;10.73;;
3405;SDS011;10008;48.682;9.016;2022-07-10T04:53:09;13.20;;;10.90;;
3405;SDS011;10008;48.682;9.016;2022-07-10T04:55:34;13.50;;;11.37;;
3405;SDS011;10008;48.682;9.016;2022-07-10T04:58:00;12.90;;;10.63;;
3405;SDS011;10008;48.682;9.016;2022-07-10T05:00:26;12.57;;;10.70;;
3405;SDS011;10008;48.682;9.016;2022-07-10T05:02:52;14.50;;;11.10;;
3405;SDS011;10008;48.682;9.016;2022-07-10T05:05:17;14.37;;;10.63;;
3405;SDS011;10008;48.682;9.016;2022-07-10T05:07:43;19.23;;;10.77;;
3405;SDS011;10008;48.682;9.016;2022-07-10T05:10:09;13.17;;;10.17;;
3405;SDS011;10008;48.682;9.016;2022-07-10T05:12:35;11.90;;;8.90;;
3405;SDS011;10008;48.682;9.016;2022-07-10T05:15:01;12.50;;;8.57;;
3405;SDS011;10008;48.682;9.016;2022-07-10T05:17:27;11.93;;;9.07;;
3405;SDS011;10008;48.682;9.016;2022-07-10T05:19:54;12.07;;;8.33;;
3405;SDS011;10008;48.682;9.016;2022-07-10T05:22:21;12.77;;;9.07;;
3405;SDS011;10008;48.682;9.016;2022-07-10T05:24:48;11.93;;;9.77;;
3405;SDS011;10008;48.682;9.016;2022-07-10T05:27:14;12.53;;;9.00;;
3405;SDS011;10008;48.682;9.016;2022-07-10T05:29:43;13.40;;;8.47;;
3405;SDS011;10008;48.682;9.016;2022-07-10T05:32:08;10.73;;;8.20;;
3405;SDS011;10008;48.682;9.016;2022-07-10T05:34:34;10.23;;;8.00;;
3405;SDS011;10008;48.682;9.016;2022-07-10T05:37:00;9.87;;;7.77;;
3405;SDS011;10008;48.682;9.016;2022-07-10T05:39:26;10.63;;;7.17;;
3405;SDS011;10008;48.682;9.016;2022-07-10T05:41:52;10.87;;;6.70;;
3405;SDS011;10008;48.682;9.016;2022-07-10T05:44:19;10.90;;;5.87;;
3405;SDS011;10008;48.682;9.016;2022-07-10T05:46:45;12.50;;;5.90;;
3405;SDS011;10008;48.682;9.016;2022-07-10T05:49:11;11.87;;;6.23;;
3405;SDS011;10008;48.682;9.016;2022-07-10T05:51:37;7.67;;;5.77;;
3405;SDS011;10008;48.682;9.016;2022-07-10T05:54:03;12.10;;;5.30;;
3405;SDS011;10008;48.682;9.016;2022-07-10T05:56:30;11.17;;;5.43;;
3405;SDS011;10008;48.682;9.016;2022-07-10T05:58:56;9.17;;;4.77;;
3405;SDS011;10008;48.682;9.016;2022-07-10T06:01:22;7.27;;;4.57;;
3405;SDS011;10008;48.682;9.016;2022-07-10T06:03:49;7.13;;;4.00;;
3405;SDS011;10008;48.682;9.016;2022-07-10T06:06:15;9.93;;;5.57;;
3405;SDS011;10008;48.682;9.016;2022-07-10T06:08:41;13.80;;;5.03;;
3405;SDS011;10008;48.682;9.016;2022-07-10T06:11:07;6.37;;;4.07;;
3405;SDS011;10008;48.682;9.016;2022-07-10T06:13:33;6.93;;;3.90;;
3405;SDS011;10008;48.682;9.016;2022-07-10T06:15:59;6.50;;;3.57;;
3405;SDS011;10008;48.682;9.016;2022-07-10T06:18:25;7.33;;;3.00;;
3405;SDS011;10008;48.682;9.016;2022-07-10T06:20:51;7.23;;;3.10;;
3405;SDS011;10008;48.682;9.016;2022-07-10T06:23:17;6.80;;;3.23;;
3405;SDS011;10008;48.682;9.016;2022-07-10T06:25:43;6.80;;;2.90;;
3405;SDS011;10008;48.682;9.016;2022-07-10T06:28:08;5.07;;;2.70;;
3405;SDS011;10008;48.682;9.016;2022-07-10T06:30:34;5.70;;;2.60;;
3405;SDS011;10008;48.682;9.016;2022-07-10T06:33:00;7.97;;;3.10;;
3405;SDS011;10008;48.682;9.016;2022-07-10T06:35:26;6.50;;;3.10;;
3405;SDS011;10008;48.682;9.016;2022-07-10T06:37:51;7.00;;;3.33;;
3405;SDS011;10008;48.682;9.016;2022-07-10T06:40:17;6.40;;;3.37;;
3405;SDS011;10008;48.682;9.016;2022-07-10T06:42:45;7.30;;;3.00;;
3405;SDS011;10008;48.682;9.016;2022-07-10T06:45:12;12.10;;;3.83;;
3405;SDS011;10008;48.682;9.016;2022-07-10T06:47:38;7.10;;;3.60;;
3405;SDS011;10008;48.682;9.016;2022-07-10T06:50:28;10.80;;;3.53;;
3405;SDS011;10008;48.682;9.016;2022-07-10T06:53:00;7.37;;;3.10;;
3405;SDS011;10008;48.682;9.016;2022-07-10T06:55:27;6.33;;;3.00;;
3405;SDS011;10008;48.682;9.016;2022-07-10T06:57:53;6.47;;;2.93;;
3405;SDS011;10008;48.682;9.016;2022-07-10T07:00:19;6.57;;;3.27;;
3405;SDS011;10008;48.682;9.016;2022-07-10T07:02:46;7.30;;;2.67;;
3405;SDS011;10008;48.682;9.016;2022-07-10T07:05:12;6.30;;;2.70;;
3405;SDS011;10008;48.682;9.016;2022-07-10T07:07:38;6.97;;;2.67;;
3405;SDS011;10008;48.682;9.016;2022-07-10T07:10:04;7.30;;;2.53;;
3405;SDS011;10008;48.682;9.016;2022-07-10T07:12:30;7.17;;;1.90;;
3405;SDS011;10008;48.682;9.016;2022-07-10T07:14:56;10.73;;;2.70;;
3405;SDS011;10008;48.682;9.016;2022-07-10T07:17:22;6.47;;;2.00;;
3405;SDS011;10008;48.682;9.016;2022-07-10T07:19:50;7.50;;;2.40;;
3405;SDS011;10008;48.682;9.016;2022-07-10T07:22:35;6.77;;;2.70;;
3405;SDS011;10008;48.682;9.016;2022-07-10T07:25:20;8.27;;;2.60;;
3405;SDS011;10008;48.682;9.016;2022-07-10T07:27:46;10.80;;;2.67;;
3405;SDS011;10008;48.682;9.016;2022-07-10T07:30:13;6.60;;;2.73;;
3405;SDS011;10008;48.682;9.016;2022-07-10T07:32:40;7.37;;;2.57;;
3405;SDS011;10008;48.682;9.016;2022-07-10T07:35:06;6.37;;;2.70;;
3405;SDS011;10008;48.682;9.016;2022-07-10T07:40:10;7.10;;;3.10;;
3405;SDS011;10008;48.682;9.016;2022-07-10T07:42:37;14.23;;;2.63;;
3405;SDS011;10008;48.682;9.016;2022-07-10T07:45:03;7.67;;;2.10;;
3405;SDS011;10008;48.682;9.016;2022-07-10T07:47:30;5.17;;;2.10;;
3405;SDS011;10008;48.682;9.016;2022-07-10T07:49:56;7.90;;;2.33;;
3405;SDS011;10008;48.682;9.016;2022-07-10T07:52:26;6.13;;;2.00;;
3405;SDS011;10008;48.682;9.016;2022-07-10T07:54:51;7.93;;;1.70;;
3405;SDS011;10008;48.682;9.016;2022-07-10T07:57:17;6.50;;;2.20;;
3405;SDS011;10008;48.682;9.016;2022-07-10T07:59:43;6.40;;;2.73;;
3405;SDS011;10008;48.682;9.016;2022-07-10T08:02:09;7.23;;;2.13;;
3405;SDS011;10008;48.682;9.016;2022-07-10T08:04:35;6.10;;;1.90;;
3405;SDS011;10008;48.682;9.016;2022-07-10T08:07:01;8.30;;;2.40;;
3405;SDS011;10008;48.682;9.016;2022-07-10T08:09:27;5.77;;;2.10;;
3405;SDS011;10008;48.682;9.016;2022-07-10T08:11:53;4.70;;;2.10;;
3405;SDS011;10008;48.682;9.016;2022-07-10T08:14:18;8.03;;;2.17;;
3405;SDS011;10008;48.682;9.016;2022-07-10T08:16:44;10.20;;;2.57;;
3405;SDS011;10008;48.682;9.016;2022-07-10T08:19:10;6.13;;;2.60;;
3405;SDS011;10008;48.682;9.016;2022-07-10T08:21:36;6.00;;;2.10;;
3405;SDS011;10008;48.682;9.016;2022-07-10T08:24:01;4.73;;;2.10;;
3405;SDS011;10008;48.682;9.016;2022-07-10T08:26:27;6.20;;;2.30;;
3405;SDS011;10008;48.682;9.016;2022-07-10T08:28:53;5.50;;;1.70;;
3405;SDS011;10008;48.682;9.016;2022-07-10T08:31:19;6.43;;;2.10;;
3405;SDS011;10008;48.682;9.016;2022-07-10T08:33:44;6.30;;;2.20;;
3405;SDS011;10008;48.682;9.016;2022-07-10T08:36:11;7.10;;;2.20;;
3405;SDS011;10008;48.682;9.016;2022-07-10T08:38:37;8.63;;;2.20;;
3405;SDS011;10008;48.682;9.016;2022-07-10T08:41:03;5.80;;;2.00;;
3405;SDS011;10008;48.682;9.016;2022-07-10T08:43:31;7.40;;;2.20;;
3405;SDS011;10008;48.682;9.016;2022-07-10T08:45:58;5.83;;;1.80;;
3405;SDS011;10008;48.682;9.016;2022-07-10T08:48:24;6.93;;;2.07;;
3405;SDS011;10008;48.682;9.016;2022-07-10T08:50:54;7.00;;;2.30;;
3405;SDS011;10008;48.682;9.016;2022-07-10T08:53:30;5.50;;;2.40;;
3405;SDS011;10008;48.682;9.016;2022-07-10T08:55:57;5.63;;;2.20;;
3405;SDS011;10008;48.682;9.016;2022-07-10T08:58:24;6.60;;;2.23;;
3405;SDS011;10008;48.682;9.016;2022-07-10T09:00:51;6.97;;;2.17;;
3405;SDS011;10008;48.682;9.016;2022-07-10T09:03:18;5.80;;;2.60;;
3405;SDS011;10008;48.682;9.016;2022-07-10T09:05:44;6.20;;;2.37;;
3405;SDS011;10008;48.682;9.016;2022-07-10T09:08:24;5.33;;;1.90;;
3405;SDS011;10008;48.682;9.016;2022-07-10T09:13:51;5.30;;;1.90;;
3405;SDS011;10008;48.682;9.016;2022-07-10T09:16:25;11.73;;;7.93;;
3405;SDS011;10008;48.682;9.016;2022-07-10T09:18:55;11.37;;;6.43;;
3405;SDS011;10008;48.682;9.016;2022-07-10T09:21:21;7.27;;;2.30;;
3405;SDS011;10008;48.682;9.016;2022-07-10T09:23:48;5.67;;;2.20;;
3405;SDS011;10008;48.682;9.016;2022-07-10T09:26:14;6.13;;;1.90;;
3405;SDS011;10008;48.682;9.016;2022-07-10T09:28:40;7.10;;;2.43;;
3405;SDS011;10008;48.682;9.016;2022-07-10T09:31:06;6.37;;;2.50;;
3405;SDS011;10008;48.682;9.016;2022-07-10T09:33:32;6.60;;;2.70;;
3405;SDS011;10008;48.682;9.016;2022-07-10T09:36:00;10.90;;;3.40;;
3405;SDS011;10008;48.682;9.016;2022-07-10T09:41:16;6.97;;;3.03;;
3405;SDS011;10008;48.682;9.016;2022-07-10T09:46:12;5.93;;;2.83;;
3405;SDS011;10008;48.682;9.016;2022-07-10T09:48:39;8.93;;;3.27;;
3405;SDS011;10008;48.682;9.016;2022-07-10T09:51:07;5.50;;;2.57;;
3405;SDS011;10008;48.682;9.016;2022-07-10T09:53:38;5.90;;;2.53;;
3405;SDS011;10008;48.682;9.016;2022-07-10T09:56:05;6.70;;;2.70;;
3405;SDS011;10008;48.682;9.016;2022-07-10T09:58:34;5.97;;;2.40;;
3405;SDS011;10008;48.682;9.016;2022-07-10T10:01:07;5.97;;;1.97;;
3405;SDS011;10008;48.682;9.016;2022-07-10T10:03:37;4.63;;;1.97;;
3405;SDS011;10008;48.682;9.016;2022-07-10T10:06:11;8.00;;;3.10;;
3405;SDS011;10008;48.682;9.016;2022-07-10T10:08:44;7.90;;;2.70;;
3405;SDS011;10008;48.682;9.016;2022-07-10T10:11:32;6.03;;;2.90;;
3405;SDS011;10008;48.682;9.016;2022-07-10T10:14:00;7.37;;;3.03;;
3405;SDS011;10008;48.682;9.016;2022-07-10T10:16:27;5.57;;;2.67;;
3405;SDS011;10008;48.682;9.016;2022-07-10T10:18:55;6.43;;;3.00;;
3405;SDS011;10008;48.682;9.016;2022-07-10T10:21:39;6.17;;;3.00;;
3405;SDS011;10008;48.682;9.016;2022-07-10T10:24:05;8.57;;;2.80;;
3405;SDS011;10008;48.682;9.016;2022-07-10T10:26:32;12.97;;;3.13;;
3405;SDS011;10008;48.682;9.016;2022-07-10T10:29:02;8.53;;;2.60;;
3405;SDS011;10008;48.682;9.016;2022-07-10T10:31:30;5.40;;;2.20;;
3405;SDS011;10008;48.682;9.016;2022-07-10T10:33:57;9.13;;;2.73;;
3405;SDS011;10008;48.682;9.016;2022-07-10T10:36:46;7.87;;;2.40;;
3405;SDS011;10008;48.682;9.016;2022-07-10T10:39:15;5.17;;;2.10;;
3405;SDS011;10008;48.682;9.016;2022-07-10T10:46:53;7.47;;;2.60;;
3405;SDS011;10008;48.682;9.016;2022-07-10T10:49:26;7.60;;;2.47;;
3405;SDS011;10008;48.682;9.016;2022-07-10T10:52:12;6.17;;;2.03;;
3405;SDS011;10008;48.682;9.016;2022-07-10T10:59:58;5.87;;;2.70;;
3405;SDS011;10008;48.682;9.016;2022-07-10T11:02:28;7.77;;;3.37;;
3405;SDS011;10008;48.682;9.016;2022-07-10T11:10:42;6.17;;;3.47;;
3405;SDS011;10008;48.682;9.016;2022-07-10T11:13:12;7.73;;;3.13;;
3405;SDS011;10008;48.682;9.016;2022-07-10T11:15:46;6.57;;;2.30;;
3405;SDS011;10008;48.682;9.016;2022-07-10T11:18:16;5.70;;;1.70;;
3405;SDS011;10008;48.682;9.016;2022-07-10T11:20:44;5.43;;;1.90;;
3405;SDS011;10008;48.682;9.016;2022-07-10T11:23:26;16.33;;;11.67;;
3405;SDS011;10008;48.682;9.016;2022-07-10T11:26:08;6.13;;;3.13;;
3405;SDS011;10008;48.682;9.016;2022-07-10T11:28:52;9.23;;;2.70;;
3405;SDS011;10008;48.682;9.016;2022-07-10T11:31:38;5.70;;;2.33;;
3405;SDS011;10008;48.682;9.016;2022-07-10T11:34:09;5.67;;;2.00;;
3405;SDS011;10008;48.682;9.016;2022-07-10T11:36:38;7.23;;;2.00;;
3405;SDS011;10008;48.682;9.016;2022-07-10T11:39:05;6.20;;;2.27;;
3405;SDS011;10008;48.682;9.016;2022-07-10T11:41:33;7.00;;;2.30;;
3405;SDS011;10008;48.682;9.016;2022-07-10T11:44:16;6.30;;;1.97;;
3405;SDS011;10008;48.682;9.016;2022-07-10T11:46:43;5.83;;;1.83;;
3405;SDS011;10008;48.682;9.016;2022-07-10T11:49:10;8.40;;;2.30;;
3405;SDS011;10008;48.682;9.016;2022-07-10T11:51:39;7.80;;;1.70;;
3405;SDS011;10008;48.682;9.016;2022-07-10T11:54:06;4.83;;;1.67;;
3405;SDS011;10008;48.682;9.016;2022-07-10T11:56:36;6.13;;;1.70;;
3405;SDS011;10008;48.682;9.016;2022-07-10T11:59:04;5.17;;;1.50;;
3405;SDS011;10008;48.682;9.016;2022-07-10T12:01:32;4.87;;;1.70;;
3405;SDS011;10008;48.682;9.016;2022-07-10T12:04:08;9.40;;;1.50;;
3405;SDS011;10008;48.682;9.016;2022-07-10T12:06:36;5.40;;;1.30;;
3405;SDS011;10008;48.682;9.016;2022-07-10T12:09:03;5.10;;;1.10;;
3405;SDS011;10008;48.682;9.016;2022-07-10T12:11:31;7.23;;;1.57;;
3405;SDS011;10008;48.682;9.016;2022-07-10T12:14:16;6.40;;;1.70;;
3405;SDS011;10008;48.682;9.016;2022-07-10T12:16:46;4.97;;;1.40;;
3405;SDS011;10008;48.682;9.016;2022-07-10T12:19:16;4.20;;;1.43;;
3405;SDS011;10008;48.682;9.016;2022-07-10T12:21:45;5.33;;;1.27;;
3405;SDS011;10008;48.682;9.016;2022-07-10T12:24:13;6.20;;;1.63;;
3405;SDS011;10008;48.682;9.016;2022-07-10T12:26:41;6.63;;;1.20;;
3405;SDS011;10008;48.682;9.016;2022-07-10T12:29:18;15.50;;;1.77;;
3405;SDS011;10008;48.682;9.016;2022-07-10T12:31:49;4.40;;;1.30;;
3405;SDS011;10008;48.682;9.016;2022-07-10T12:37:15;7.20;;;1.23;;
3405;SDS011;10008;48.682;9.016;2022-07-10T12:42:31;4.50;;;1.10;;
3405;SDS011;10008;48.682;9.016;2022-07-10T12:47:43;6.33;;;1.30;;
3405;SDS011;10008;48.682;9.016;2022-07-10T12:50:11;10.30;;;1.10;;
3405;SDS011;10008;48.682;9.016;2022-07-10T12:52:38;5.00;;;1.07;;
3405;SDS011;10008;48.682;9.016;2022-07-10T12:55:14;4.47;;;0.80;;
3405;SDS011;10008;48.682;9.016;2022-07-10T13:02:47;3.80;;;0.80;;
3405;SDS011;10008;48.682;9.016;2022-07-10T13:10:32;5.83;;;0.80;;
3405;SDS011;10008;48.682;9.016;2022-07-10T13:12:59;5.20;;;1.20;;
3405;SDS011;10008;48.682;9.016;2022-07-10T13:15:27;4.30;;;0.80;;
3405;SDS011;10008;48.682;9.016;2022-07-10T13:17:54;4.70;;;0.80;;
3405;SDS011;10008;48.682;9.016;2022-07-10T13:20:21;9.07;;;2.87;;
3405;SDS011;10008;48.682;9.016;2022-07-10T13:22:46;7.17;;;1.53;;
3405;SDS011;10008;48.682;9.016;2022-07-10T13:25:12;6.97;;;2.13;;
3405;SDS011;10008;48.682;9.016;2022-07-10T13:27:38;4.77;;;0.90;;
3405;SDS011;10008;48.682;9.016;2022-07-10T13:30:04;5.17;;;1.00;;
3405;SDS011;10008;48.682;9.016;2022-07-10T13:32:31;4.57;;;0.90;;
3405;SDS011;10008;48.682;9.016;2022-07-10T13:34:57;7.00;;;1.83;;
3405;SDS011;10008;48.682;9.016;2022-07-10T13:37:22;8.00;;;2.80;;
3405;SDS011;10008;48.682;9.016;2022-07-10T13:39:48;5.00;;;0.90;;
3405;SDS011;10008;48.682;9.016;2022-07-10T13:42:14;4.10;;;0.90;;
3405;SDS011;10008;48.682;9.016;2022-07-10T13:44:40;6.93;;;1.30;;
3405;SDS011;10008;48.682;9.016;2022-07-10T13:47:05;6.90;;;0.80;;
3405;SDS011;10008;48.682;9.016;2022-07-10T13:49:31;5.30;;;1.00;;
3405;SDS011;10008;48.682;9.016;2022-07-10T13:51:57;4.50;;;0.90;;
3405;SDS011;10008;48.682;9.016;2022-07-10T13:54:23;3.80;;;0.70;;
3405;SDS011;10008;48.682;9.016;2022-07-10T13:56:49;5.70;;;0.90;;
3405;SDS011;10008;48.682;9.016;2022-07-10T13:59:15;4.20;;;0.70;;
3405;SDS011;10008;48.682;9.016;2022-07-10T14:01:41;4.73;;;0.80;;
3405;SDS011;10008;48.682;9.016;2022-07-10T14:04:07;9.90;;;0.90;;
3405;SDS011;10008;48.682;9.016;2022-07-10T14:06:33;8.77;;;1.00;;
3405;SDS011;10008;48.682;9.016;2022-07-10T14:08:59;5.10;;;0.80;;
3405;SDS011;10008;48.682;9.016;2022-07-10T14:11:26;3.70;;;0.70;;
3405;SDS011;10008;48.682;9.016;2022-07-10T14:13:51;4.10;;;0.80;;
3405;SDS011;10008;48.682;9.016;2022-07-10T14:16:17;6.17;;;0.90;;
3405;SDS011;10008;48.682;9.016;2022-07-10T14:18:43;4.60;;;0.77;;
3405;SDS011;10008;48.682;9.016;2022-07-10T14:21:10;5.03;;;1.00;;
3405;SDS011;10008;48.682;9.016;2022-07-10T14:23:38;4.23;;;0.70;;
3405;SDS011;10008;48.682;9.016;2022-07-10T14:26:06;9.03;;;1.40;;
3405;SDS011;10008;48.682;9.016;2022-07-10T14:28:33;4.20;;;0.87;;
3405;SDS011;10008;48.682;9.016;2022-07-10T14:31:05;11.93;;;1.10;;
3405;SDS011;10008;48.682;9.016;2022-07-10T14:33:32;6.07;;;1.00;;
3405;SDS011;10008;48.682;9.016;2022-07-10T14:35:59;7.33;;;0.90;;
3405;SDS011;10008;48.682;9.016;2022-07-10T14:38:25;5.40;;;0.80;;
3405;SDS011;10008;48.682;9.016;2022-07-10T14:40:51;4.63;;;0.70;;
3405;SDS011;10008;48.682;9.016;2022-07-10T14:43:20;3.80;;;1.00;;
3405;SDS011;10008;48.682;9.016;2022-07-10T14:45:46;4.57;;;1.00;;
3405;SDS011;10008;48.682;9.016;2022-07-10T14:48:12;3.73;;;0.60;;
3405;SDS011;10008;48.682;9.016;2022-07-10T14:50:38;4.67;;;0.90;;
3405;SDS011;10008;48.682;9.016;2022-07-10T14:53:05;6.20;;;0.90;;
3405;SDS011;10008;48.682;9.016;2022-07-10T14:55:32;8.03;;;0.90;;
3405;SDS011;10008;48.682;9.016;2022-07-10T14:57:58;5.20;;;0.83;;
3405;SDS011;10008;48.682;9.016;2022-07-10T15:00:24;4.20;;;0.90;;
3405;SDS011;10008;48.682;9.016;2022-07-10T15:02:50;11.07;;;1.00;;
3405;SDS011;10008;48.682;9.016;2022-07-10T15:05:15;4.10;;;0.80;;
3405;SDS011;10008;48.682;9.016;2022-07-10T15:07:41;8.73;;;1.00;;
3405;SDS011;10008;48.682;9.016;2022-07-10T15:10:07;5.17;;;1.00;;
3405;SDS011;10008;48.682;9.016;2022-07-10T15:12:35;4.03;;;0.80;;
3405;SDS011;10008;48.682;9.016;2022-07-10T15:15:04;3.97;;;0.70;;
3405;SDS011;10008;48.682;9.016;2022-07-10T15:17:35;4.40;;;0.87;;
3405;SDS011;10008;48.682;9.016;2022-07-10T15:20:01;5.50;;;1.10;;
3405;SDS011;10008;48.682;9.016;2022-07-10T15:22:27;5.43;;;0.80;;
3405;SDS011;10008;48.682;9.016;2022-07-10T15:24:53;5.00;;;1.10;;
3405;SDS011;10008;48.682;9.016;2022-07-10T15:27:19;4.33;;;0.90;;
3405;SDS011;10008;48.682;9.016;2022-07-10T15:29:45;5.03;;;1.20;;
3405;SDS011;10008;48.682;9.016;2022-07-10T15:32:10;6.57;;;1.10;;
3405;SDS011;10008;48.682;9.016;2022-07-10T15:34:37;16.23;;;13.07;;
3405;SDS011;10008;48.682;9.016;2022-07-10T15:37:04;6.80;;;2.50;;
3405;SDS011;10008;48.682;9.016;2022-07-10T15:39:29;5.53;;;1.67;;